createdAt,value
2023-02-16T00:01:28.806Z,1.59
2023-02-16T00:03:58.151Z,1.56
2023-02-16T00:06:27.698Z,1.54
2023-02-16T00:08:57.579Z,1.56
2023-02-16T00:11:47.526Z,1.74
2023-02-16T00:14:16.366Z,1.39
2023-02-16T00:16:44.870Z,1.38
2023-02-16T00:19:19.934Z,1.73
2023-02-16T00:21:48.604Z,1.27
2023-02-16T00:24:17.712Z,1.47
2023-02-16T00:26:47.805Z,1.53
2023-02-16T00:29:21.450Z,1.53
2023-02-16T00:31:50.521Z,1.29
2023-02-16T00:34:38.020Z,1.78
2023-02-16T00:37:08.048Z,1.43
2023-02-16T00:39:37.761Z,1.43
2023-02-16T00:42:11.632Z,1.51
2023-02-16T00:44:43.654Z,1.42
2023-02-16T00:47:20.254Z,1.47
2023-02-16T00:49:50.326Z,1.25
2023-02-16T00:52:33.758Z,1.55
2023-02-16T00:55:04.701Z,1.34
2023-02-16T00:57:37.678Z,1.32
2023-02-16T01:00:13.322Z,1.42
2023-02-16T01:02:42.350Z,1.18
2023-02-16T01:05:11.607Z,1.18
2023-02-16T01:07:56.871Z,0.96
2023-02-16T01:10:44.266Z,1.25
2023-02-16T01:13:14.086Z,1.24
2023-02-16T01:15:43.979Z,1.29
2023-02-16T01:18:14.333Z,1.46
2023-02-16T01:20:42.909Z,1.13
2023-02-16T01:23:11.340Z,1.15
2023-02-16T01:25:41.387Z,1.23
2023-02-16T01:28:19.391Z,1.47
2023-02-16T01:30:48.182Z,1.15
2023-02-16T01:33:16.749Z,1.13
2023-02-16T01:35:45.791Z,1.25
2023-02-16T01:38:18.727Z,1.47
2023-02-16T01:40:53.664Z,1.40
2023-02-16T01:43:26.107Z,1.34
2023-02-16T01:46:00.651Z,1.21
2023-02-16T01:48:30.343Z,0.92
2023-02-16T01:51:04.788Z,1.11
2023-02-16T01:53:35.297Z,1.02
2023-02-16T01:56:07.601Z,1.03
2023-02-16T01:58:42.343Z,1.11
2023-02-16T02:01:36.464Z,1.27
2023-02-16T02:04:29.902Z,0.67
2023-02-16T02:06:58.701Z,0.68
2023-02-16T02:09:30.340Z,0.82
2023-02-16T02:12:03.284Z,0.90
2023-02-16T02:14:37.411Z,0.90
2023-02-16T02:17:10.360Z,0.85
2023-02-16T02:19:45.987Z,0.89
2023-02-16T02:23:00.010Z,1.01
2023-02-16T02:25:48.789Z,0.97
2023-02-16T02:28:21.329Z,0.84
2023-02-16T02:30:55.532Z,0.93
2023-02-16T02:33:42.923Z,1.00
2023-02-16T02:36:21.635Z,0.93
2023-02-16T02:39:00.094Z,0.88
2023-02-16T02:41:52.246Z,0.77
2023-02-16T02:44:24.405Z,0.77
2023-02-16T02:46:53.288Z,0.63
2023-02-16T02:49:22.132Z,0.55
2023-02-16T02:51:51.134Z,0.66
2023-02-16T02:54:39.638Z,0.77
2023-02-16T02:57:27.844Z,0.71
2023-02-16T03:00:17.963Z,0.74
2023-02-16T03:02:48.525Z,0.67
2023-02-16T03:05:18.325Z,0.64
2023-02-16T03:07:48.207Z,0.70
2023-02-16T03:10:36.396Z,0.60
2023-02-16T03:13:06.052Z,0.66
2023-02-16T03:15:36.600Z,0.75
2023-02-16T03:18:24.244Z,0.75
2023-02-16T03:21:11.299Z,0.57
2023-02-16T03:23:58.893Z,0.78
2023-02-16T03:26:46.184Z,0.90
2023-02-16T03:29:18.752Z,0.77
2023-02-16T03:31:50.456Z,0.74
2023-02-16T03:34:19.994Z,0.59
2023-02-16T03:36:50.279Z,0.58
2023-02-16T03:39:19.261Z,0.59
2023-02-16T03:41:50.541Z,0.72
2023-02-16T03:44:19.026Z,0.53
2023-02-16T03:46:50.020Z,0.42
2023-02-16T03:49:19.236Z,0.51
2023-02-16T03:51:47.988Z,0.29
2023-02-16T03:54:16.449Z,0.44
2023-02-16T03:56:45.238Z,0.43
2023-02-16T03:59:13.512Z,0.54
2023-02-16T04:01:42.287Z,0.36
2023-02-16T04:04:12.102Z,0.75
2023-02-16T04:06:40.692Z,0.51
2023-02-16T04:09:09.785Z,0.52
2023-02-16T04:11:55.586Z,0.51
2023-02-16T04:14:24.308Z,0.47
2023-02-16T04:16:52.896Z,0.60
2023-02-16T04:19:25.007Z,0.79
2023-02-16T04:21:54.099Z,0.70
2023-02-16T04:24:23.006Z,0.71
2023-02-16T04:26:51.318Z,0.64
2023-02-16T04:29:20.205Z,0.78
2023-02-16T04:31:50.105Z,0.68
2023-02-16T04:34:18.802Z,0.70
2023-02-16T04:36:48.790Z,0.88
2023-02-16T04:39:17.642Z,0.71
2023-02-16T04:41:46.169Z,0.67
2023-02-16T04:44:14.926Z,0.65
2023-02-16T04:46:43.191Z,0.60
2023-02-16T04:49:12.162Z,0.75
2023-02-16T04:51:40.593Z,0.65
2023-02-16T04:54:10.883Z,0.88
2023-02-16T04:56:39.281Z,0.62
2023-02-16T04:59:08.667Z,0.65
2023-02-16T05:01:37.692Z,0.58
2023-02-16T05:04:06.502Z,0.67
2023-02-16T05:06:35.332Z,0.45
2023-02-16T05:09:04.233Z,0.45
2023-02-16T05:11:51.615Z,0.79
2023-02-16T05:14:41.540Z,0.74
2023-02-16T05:17:11.205Z,0.62
2023-02-16T05:19:39.835Z,0.49
2023-02-16T05:22:09.372Z,0.63
2023-02-16T05:24:38.624Z,0.52
2023-02-16T05:27:10.516Z,0.79
2023-02-16T05:29:39.308Z,0.52
2023-02-16T05:32:07.721Z,0.41
2023-02-16T05:34:36.812Z,0.66
2023-02-16T05:37:05.267Z,0.72
2023-02-16T05:39:34.076Z,0.82
2023-02-16T05:42:02.547Z,0.62
2023-02-16T05:44:32.657Z,0.66
2023-02-16T05:47:01.141Z,0.49
2023-02-16T05:49:29.719Z,0.38
2023-02-16T05:51:58.401Z,0.62
2023-02-16T05:54:28.249Z,0.66
2023-02-16T05:56:56.904Z,0.67
2023-02-16T05:59:25.698Z,0.54
2023-02-16T06:01:55.651Z,0.80
2023-02-16T06:04:24.276Z,0.68
2023-02-16T06:06:52.678Z,0.68
2023-02-16T06:09:21.824Z,0.80
2023-02-16T06:11:50.187Z,0.79
2023-02-16T06:14:21.229Z,1.17
2023-02-16T06:16:51.715Z,1.35
2023-02-16T06:19:22.118Z,1.63
2023-02-16T06:21:50.577Z,1.64
2023-02-16T06:24:19.163Z,1.93
2023-02-16T06:26:47.570Z,2.14
2023-02-16T06:29:16.723Z,2.41
2023-02-16T06:31:45.284Z,2.61
2023-02-16T06:34:13.983Z,2.61
2023-02-16T06:36:43.926Z,2.90
2023-02-16T06:39:12.857Z,2.70
2023-02-16T06:41:41.321Z,2.73
2023-02-16T06:44:13.584Z,3.21
2023-02-16T06:46:43.207Z,3.36
2023-02-16T06:49:13.430Z,3.83
2023-02-16T06:51:43.411Z,4.30
2023-02-16T06:54:12.221Z,4.50
2023-02-16T06:56:40.704Z,4.91
2023-02-16T06:59:09.808Z,5.34
2023-02-16T07:01:38.070Z,5.61
2023-02-16T07:04:07.299Z,6.02
2023-02-16T07:06:35.614Z,6.15
2023-02-16T07:09:06.028Z,6.62
2023-02-16T07:11:34.666Z,6.62
2023-02-16T07:14:03.552Z,6.97
2023-02-16T07:16:32.094Z,7.24
2023-02-16T07:19:01.655Z,7.84
2023-02-16T07:21:30.270Z,8.32
2023-02-16T07:23:58.964Z,9.03
2023-02-16T07:26:29.164Z,9.95
2023-02-16T07:28:57.856Z,9.68
2023-02-16T07:31:26.893Z,9.96
2023-02-16T07:33:55.704Z,10.17
2023-02-16T07:36:24.130Z,10.18
2023-02-16T07:38:53.993Z,10.52
2023-02-16T07:41:22.790Z,10.60
2023-02-16T07:43:53.574Z,11.06
2023-02-16T07:46:21.988Z,11.11
2023-02-16T07:48:50.706Z,11.29
2023-02-16T07:51:23.171Z,12.22
2023-02-16T07:53:52.162Z,12.53
2023-02-16T07:56:21.643Z,12.79
2023-02-16T07:58:50.215Z,12.88
2023-02-16T08:01:20.464Z,13.49
2023-02-16T08:03:49.167Z,13.38
2023-02-16T08:06:18.531Z,13.68
2023-02-16T08:08:48.096Z,13.88
2023-02-16T08:11:18.053Z,14.35
2023-02-16T08:13:46.963Z,14.56
2023-02-16T08:16:17.171Z,14.81
2023-02-16T08:18:47.525Z,14.59
2023-02-16T08:21:17.311Z,14.54
2023-02-16T08:23:47.787Z,15.01
2023-02-16T08:26:18.540Z,15.46
2023-02-16T08:28:50.392Z,16.17
2023-02-16T08:31:20.756Z,16.33
2023-02-16T08:33:51.178Z,16.16
2023-02-16T08:36:20.981Z,15.81
2023-02-16T08:38:52.178Z,15.44
2023-02-16T08:41:22.116Z,15.48
2023-02-16T08:43:51.455Z,15.84
2023-02-16T08:46:20.086Z,16.36
2023-02-16T08:48:50.389Z,17.31
2023-02-16T08:51:20.485Z,17.46
2023-02-16T08:53:49.602Z,17.04
2023-02-16T08:56:18.019Z,17.02
2023-02-16T08:58:47.008Z,17.86
2023-02-16T09:01:16.613Z,18.28
2023-02-16T09:03:47.384Z,18.69
2023-02-16T09:06:20.463Z,19.10
2023-02-16T09:08:52.705Z,18.61
2023-02-16T09:11:21.870Z,18.01
2023-02-16T09:13:51.650Z,17.93
2023-02-16T09:16:22.810Z,18.41
2023-02-16T09:18:51.429Z,19.50
2023-02-16T09:21:23.593Z,19.61
2023-02-16T09:23:54.206Z,19.95
2023-02-16T09:26:24.578Z,20.93
2023-02-16T09:28:54.037Z,21.43
2023-02-16T09:31:27.433Z,22.00
2023-02-16T09:33:58.555Z,21.86
2023-02-16T09:36:29.008Z,21.43
2023-02-16T09:38:58.527Z,20.97
2023-02-16T09:41:36.828Z,21.39
2023-02-16T09:44:15.723Z,21.67
2023-02-16T09:46:44.802Z,21.39
2023-02-16T09:49:22.398Z,21.94
2023-02-16T09:52:00.364Z,22.12
2023-02-16T09:54:35.904Z,21.79
2023-02-16T09:57:09.248Z,21.28
2023-02-16T09:59:44.924Z,21.28
2023-02-16T10:02:40.618Z,21.60
2023-02-16T10:05:18.723Z,21.63
2023-02-16T10:07:59.139Z,21.91
2023-02-16T10:10:33.046Z,22.02
2023-02-16T10:13:05.366Z,22.32
2023-02-16T10:15:34.893Z,22.56
2023-02-16T10:18:09.278Z,23.34
2023-02-16T10:20:40.078Z,23.65
2023-02-16T10:23:16.681Z,23.90
2023-02-16T10:25:48.944Z,24.03
2023-02-16T10:28:21.789Z,24.29
2023-02-16T10:30:54.013Z,24.62
2023-02-16T10:33:34.304Z,24.83
2023-02-16T10:36:05.402Z,25.08
2023-02-16T10:38:37.950Z,25.93
2023-02-16T10:41:14.632Z,25.43
2023-02-16T10:43:46.797Z,25.40
2023-02-16T10:46:21.356Z,25.80
2023-02-16T10:48:50.634Z,25.85
2023-02-16T10:51:19.944Z,26.22
2023-02-16T10:53:54.815Z,26.36
2023-02-16T10:56:34.854Z,25.54
2023-02-16T10:59:05.615Z,24.55
2023-02-16T11:01:38.750Z,24.56
2023-02-16T11:04:08.120Z,24.57
2023-02-16T11:06:36.814Z,24.28
2023-02-16T11:09:07.978Z,24.42
2023-02-16T11:11:37.288Z,25.01
2023-02-16T11:14:09.052Z,24.91
2023-02-16T11:16:37.794Z,25.51
2023-02-16T11:19:09.073Z,25.27
2023-02-16T11:21:47.422Z,24.69
2023-02-16T11:24:28.032Z,24.64
2023-02-16T11:27:05.292Z,24.59
2023-02-16T11:29:35.809Z,24.27
2023-02-16T11:32:10.131Z,23.79
2023-02-16T11:34:42.570Z,23.07
2023-02-16T11:37:16.472Z,22.86
2023-02-16T11:39:52.241Z,22.51
2023-02-16T11:42:28.644Z,22.72
2023-02-16T11:44:58.851Z,23.08
2023-02-16T11:47:29.649Z,23.05
2023-02-16T11:50:20.140Z,23.12
2023-02-16T11:52:49.941Z,22.66
2023-02-16T11:55:27.126Z,23.21
2023-02-16T11:57:57.311Z,23.32
2023-02-16T12:00:28.174Z,23.02
2023-02-16T12:03:18.394Z,22.65
2023-02-16T12:05:55.967Z,21.67
2023-02-16T12:08:44.882Z,21.16
2023-02-16T12:11:28.739Z,21.04
2023-02-16T12:14:05.951Z,20.61
2023-02-16T12:16:38.461Z,19.69
2023-02-16T12:19:20.664Z,18.39
2023-02-16T12:21:51.419Z,17.23
2023-02-16T12:24:32.103Z,16.23
2023-02-16T12:27:04.900Z,15.59
2023-02-16T12:29:45.940Z,15.00
2023-02-16T12:32:35.366Z,14.21
2023-02-16T12:35:22.588Z,13.69
2023-02-16T12:37:57.284Z,13.29
2023-02-16T12:40:32.045Z,13.01
2023-02-16T12:43:26.598Z,12.92
2023-02-16T12:45:57.930Z,12.63
2023-02-16T12:48:36.816Z,12.59
2023-02-16T12:51:10.267Z,12.30
2023-02-16T12:53:45.135Z,12.40
2023-02-16T12:56:18.632Z,12.50
2023-02-16T12:58:53.655Z,12.62
2023-02-16T13:01:25.614Z,12.67
2023-02-16T13:03:57.071Z,12.57
2023-02-16T13:06:30.717Z,12.36
2023-02-16T13:09:07.577Z,12.31
2023-02-16T13:11:38.623Z,12.01
2023-02-16T13:14:16.089Z,11.76
2023-02-16T13:16:48.103Z,11.56
2023-02-16T13:19:17.168Z,11.16
2023-02-16T13:22:20.326Z,11.55
2023-02-16T13:24:59.620Z,11.32
2023-02-16T13:27:34.440Z,11.37
2023-02-16T13:30:17.451Z,11.35
2023-02-16T13:32:57.997Z,11.39
2023-02-16T13:35:43.135Z,11.44
2023-02-16T13:38:25.822Z,11.26
2023-02-16T13:41:15.069Z,11.25
2023-02-16T13:43:45.150Z,10.84
2023-02-16T13:46:20.012Z,10.75
2023-02-16T13:48:50.846Z,10.56
2023-02-16T13:51:20.926Z,10.37
2023-02-16T13:53:56.685Z,10.42
2023-02-16T13:56:36.405Z,10.32
2023-02-16T13:59:49.603Z,10.33
2023-02-16T14:02:57.475Z,10.31
2023-02-16T14:05:38.488Z,10.31
2023-02-16T14:08:21.418Z,10.17
2023-02-16T14:11:12.369Z,10.36
2023-02-16T14:13:51.101Z,10.21
2023-02-16T14:16:30.275Z,10.15
2023-02-16T14:19:02.851Z,9.91
2023-02-16T14:21:37.911Z,9.85
2023-02-16T14:24:08.749Z,9.65
2023-02-16T14:26:53.532Z,9.75
2023-02-16T14:29:23.841Z,9.35
2023-02-16T14:31:56.822Z,9.46
2023-02-16T14:34:30.200Z,9.42
2023-02-16T14:37:31.018Z,9.69
2023-02-16T14:40:26.950Z,9.44
2023-02-16T14:43:04.946Z,9.31
2023-02-16T14:46:07.118Z,9.62
2023-02-16T14:49:20.740Z,9.63
2023-02-16T14:52:18.725Z,9.44
2023-02-16T14:55:26.243Z,9.33
2023-02-16T14:57:57.661Z,9.11
2023-02-16T15:00:30.693Z,9.02
2023-02-16T15:03:02.154Z,8.88
2023-02-16T15:05:33.057Z,8.73
2023-02-16T15:08:13.052Z,8.84
2023-02-16T15:10:41.600Z,8.36
2023-02-16T15:13:09.990Z,8.31
2023-02-16T15:15:45.970Z,8.61
2023-02-16T15:18:17.982Z,8.48
2023-02-16T15:20:48.488Z,8.37
2023-02-16T15:23:22.971Z,8.33
2023-02-16T15:25:58.238Z,8.14
2023-02-16T15:28:27.835Z,7.93
2023-02-16T15:30:58.391Z,7.88
2023-02-16T15:33:32.644Z,7.93
2023-02-16T15:36:03.234Z,7.76
2023-02-16T15:38:34.318Z,7.80
2023-02-16T15:41:05.180Z,7.61
2023-02-16T15:43:37.656Z,7.53
2023-02-16T15:46:08.841Z,7.31
2023-02-16T15:48:39.128Z,7.26
2023-02-16T15:51:13.527Z,7.22
2023-02-16T15:53:52.025Z,7.26
2023-02-16T15:56:36.230Z,7.26
2023-02-16T15:59:06.738Z,6.86
2023-02-16T16:01:36.423Z,6.73
2023-02-16T16:04:08.436Z,6.61
2023-02-16T16:06:38.851Z,6.47
2023-02-16T16:09:15.418Z,6.55
2023-02-16T16:11:44.274Z,6.02
2023-02-16T16:14:13.075Z,6.07
2023-02-16T16:16:42.097Z,6.11
2023-02-16T16:19:16.712Z,6.23
2023-02-16T16:21:51.720Z,6.25
2023-02-16T16:24:35.207Z,6.29
2023-02-16T16:27:07.121Z,6.12
2023-02-16T16:29:38.308Z,6.01
2023-02-16T16:32:08.256Z,5.85
2023-02-16T16:34:39.152Z,5.84
2023-02-16T16:37:26.824Z,5.65
2023-02-16T16:40:05.592Z,6.01
2023-02-16T16:42:34.796Z,5.48
2023-02-16T16:45:07.418Z,5.48
2023-02-16T16:47:39.633Z,5.45
2023-02-16T16:50:31.696Z,5.69
2023-02-16T16:53:00.327Z,5.10
2023-02-16T16:55:32.506Z,5.34
2023-02-16T16:58:03.433Z,5.02
2023-02-16T17:00:35.386Z,5.16
2023-02-16T17:03:06.051Z,5.09
2023-02-16T17:05:40.071Z,5.12
2023-02-16T17:08:09.083Z,4.87
2023-02-16T17:10:38.945Z,5.00
2023-02-16T17:13:08.322Z,4.84
2023-02-16T17:15:41.094Z,5.01
2023-02-16T17:18:11.560Z,4.85
2023-02-16T17:20:41.378Z,4.92
2023-02-16T17:23:13.186Z,4.94
2023-02-16T17:25:41.619Z,5.34
2023-02-16T17:28:11.414Z,4.60
2023-02-16T17:30:39.948Z,4.54
2023-02-16T17:33:09.680Z,4.38
2023-02-16T17:35:39.775Z,4.50
2023-02-16T17:38:11.016Z,4.55
2023-02-16T17:40:39.909Z,4.14
2023-02-16T17:43:13.166Z,4.45
2023-02-16T17:45:42.193Z,4.24
2023-02-16T17:48:17.038Z,4.45
2023-02-16T17:50:45.721Z,4.23
2023-02-16T17:53:17.399Z,4.41
2023-02-16T17:55:46.923Z,4.71
2023-02-16T17:58:16.317Z,4.17
2023-02-16T18:00:45.157Z,4.01
2023-02-16T18:03:14.021Z,3.94
2023-02-16T18:05:42.382Z,3.86
2023-02-16T18:08:11.898Z,3.99
2023-02-16T18:10:51.014Z,4.11
2023-02-16T18:13:20.332Z,3.87
2023-02-16T18:15:50.380Z,4.02
2023-02-16T18:18:20.304Z,3.93
2023-02-16T18:20:48.793Z,3.72
2023-02-16T18:23:17.653Z,3.73
2023-02-16T18:25:47.522Z,3.91
2023-02-16T18:28:18.958Z,3.86
2023-02-16T18:30:48.285Z,3.60
2023-02-16T18:33:17.292Z,3.70
2023-02-16T18:35:45.757Z,3.82
2023-02-16T18:38:14.640Z,3.60
2023-02-16T18:40:43.103Z,3.57
2023-02-16T18:43:13.267Z,3.73
2023-02-16T18:45:42.658Z,3.63
2023-02-16T18:48:11.357Z,3.39
2023-02-16T18:50:39.759Z,3.45
2023-02-16T18:53:08.952Z,3.55
2023-02-16T18:55:37.494Z,3.54
2023-02-16T18:58:08.508Z,3.62
2023-02-16T19:00:39.165Z,3.75
2023-02-16T19:03:07.862Z,3.39
2023-02-16T19:05:36.538Z,3.44
2023-02-16T19:08:05.487Z,3.31
2023-02-16T19:10:34.176Z,3.33
2023-02-16T19:13:03.459Z,3.31
2023-02-16T19:15:33.368Z,3.24
2023-02-16T19:18:03.435Z,3.38
2023-02-16T19:20:31.812Z,3.11
2023-02-16T19:23:00.561Z,3.10
2023-02-16T19:25:29.457Z,3.08
2023-02-16T19:27:58.177Z,2.97
2023-02-16T19:30:26.405Z,3.05
2023-02-16T19:32:55.324Z,2.99
2023-02-16T19:35:25.025Z,3.23
2023-02-16T19:37:54.063Z,2.89
2023-02-16T19:40:22.592Z,2.86
2023-02-16T19:42:51.276Z,2.79
2023-02-16T19:45:19.911Z,2.83
2023-02-16T19:47:51.389Z,3.18
2023-02-16T19:50:19.885Z,2.94
2023-02-16T19:52:50.158Z,3.10
2023-02-16T19:55:18.662Z,2.91
2023-02-16T19:57:47.242Z,2.87
2023-02-16T20:00:16.097Z,2.83
2023-02-16T20:02:45.009Z,2.82
2023-02-16T20:05:13.772Z,2.78
2023-02-16T20:07:42.527Z,2.98
2023-02-16T20:10:12.403Z,2.98
2023-02-16T20:12:41.059Z,2.81
2023-02-16T20:15:12.492Z,2.69
2023-02-16T20:17:41.118Z,2.66
2023-02-16T20:20:10.101Z,2.72
2023-02-16T20:22:38.879Z,2.68
2023-02-16T20:25:08.339Z,2.74
2023-02-16T20:27:38.977Z,2.93
2023-02-16T20:30:08.714Z,2.82
2023-02-16T20:32:37.489Z,2.73
2023-02-16T20:35:07.895Z,2.80
2023-02-16T20:37:36.709Z,2.54
2023-02-16T20:40:06.481Z,2.62
2023-02-16T20:42:35.156Z,2.61
2023-02-16T20:45:05.353Z,2.86
2023-02-16T20:47:34.594Z,2.81
2023-02-16T20:50:03.297Z,2.53
2023-02-16T20:52:32.084Z,2.58
2023-02-16T20:55:00.559Z,2.61
2023-02-16T20:57:29.205Z,2.61
2023-02-16T20:59:57.520Z,2.51
2023-02-16T21:02:27.659Z,2.80
2023-02-16T21:04:56.155Z,2.63
2023-02-16T21:07:27.874Z,2.62
2023-02-16T21:09:58.683Z,3.38
2023-02-16T21:12:27.354Z,2.61
2023-02-16T21:14:55.688Z,2.49
2023-02-16T21:17:24.435Z,2.53
2023-02-16T21:19:54.463Z,2.77
2023-02-16T21:22:24.759Z,2.41
2023-02-16T21:25:09.158Z,2.94
2023-02-16T21:27:38.318Z,2.55
2023-02-16T21:30:10.846Z,2.83
2023-02-16T21:32:39.621Z,2.51
2023-02-16T21:35:10.080Z,2.76
2023-02-16T21:37:39.451Z,2.55
2023-02-16T21:40:28.055Z,2.52
2023-02-16T21:43:05.255Z,2.45
2023-02-16T21:45:33.685Z,2.31
2023-02-16T21:48:19.776Z,2.32
2023-02-16T21:50:49.562Z,2.64
2023-02-16T21:53:18.154Z,2.37
2023-02-16T21:56:04.744Z,2.24
2023-02-16T21:58:36.932Z,2.57
2023-02-16T22:01:05.512Z,2.18
2023-02-16T22:03:34.430Z,2.21
2023-02-16T22:06:05.201Z,2.41
2023-02-16T22:08:34.813Z,2.82
2023-02-16T22:11:08.863Z,2.41
2023-02-16T22:13:38.442Z,2.28
2023-02-16T22:16:11.487Z,2.39
2023-02-16T22:18:40.981Z,2.19
2023-02-16T22:21:10.738Z,2.29
2023-02-16T22:23:40.563Z,2.16
2023-02-16T22:26:09.434Z,2.13
2023-02-16T22:28:38.481Z,2.07
2023-02-16T22:31:08.484Z,2.31
2023-02-16T22:33:37.171Z,2.27
2023-02-16T22:36:14.027Z,2.56
2023-02-16T22:38:42.750Z,2.29
2023-02-16T22:41:12.590Z,2.40
2023-02-16T22:43:42.141Z,2.39
2023-02-16T22:46:14.102Z,2.38
2023-02-16T22:48:42.850Z,2.34
2023-02-16T22:51:14.510Z,2.52
2023-02-16T22:53:43.395Z,2.36
2023-02-16T22:56:14.286Z,2.54
2023-02-16T22:58:42.978Z,2.44
2023-02-16T23:01:13.246Z,2.59
2023-02-16T23:03:43.000Z,2.48
2023-02-16T23:06:17.428Z,2.76
2023-02-16T23:08:46.897Z,2.51
2023-02-16T23:11:15.248Z,2.29
2023-02-16T23:13:43.812Z,2.36
2023-02-16T23:16:14.422Z,2.50
2023-02-16T23:18:44.148Z,2.50
2023-02-16T23:21:18.295Z,2.55
2023-02-16T23:23:47.449Z,2.20
2023-02-16T23:26:16.310Z,2.21
2023-02-16T23:28:45.711Z,2.21
2023-02-16T23:31:14.234Z,2.03
2023-02-16T23:33:43.200Z,2.07
2023-02-16T23:36:11.847Z,2.18
2023-02-16T23:38:41.927Z,2.38
2023-02-16T23:41:12.724Z,2.34
2023-02-16T23:43:41.755Z,2.15
2023-02-16T23:46:11.221Z,2.21
2023-02-16T23:48:40.108Z,2.16
2023-02-16T23:51:10.549Z,1.99
2023-02-16T23:53:41.823Z,2.31
2023-02-16T23:56:13.304Z,2.15
2023-02-16T23:58:42.955Z,2.13
